Time;durP1;ratioP1;P1;durP2;ratioP2;P2;SDS_P1;SDS_P2;PMS_P1;PMS_P2;Temp;Humidity;BMP_temperature;BMP_pressure;BME280_temperature;BME280_humidity;BME280_pressure;Samples;Min_cycle;Max_cycle;Signal;HPM_P1;HPM_P2
2022/09/30 03:09:37;;;;;;;25.00;23.30;;;9.20;99.90;;;;;;5657809;23;20489;-72
2022/09/30 03:12:16;;;;;;;26.23;24.40;;;9.20;99.90;;;;;;5009262;28;20444;-71
2022/09/30 03:15:01;;;;;;;24.90;22.53;;;9.30;99.90;;;;;;5009437;28;20806;-73
2022/09/30 03:17:42;;;;;;;25.77;24.00;;;9.30;99.90;;;;;;5009800;28;20456;-74
2022/09/30 03:20:46;;;;;;;25.63;23.53;;;9.20;99.90;;;;;;5009851;28;20481;-72
2022/09/30 03:23:42;;;;;;;29.70;27.27;;;9.20;99.90;;;;;;5009826;28;20453;-73
2022/09/30 03:26:24;;;;;;;27.17;24.97;;;9.10;99.90;;;;;;5010010;28;20450;-73
2022/09/30 03:28:57;;;;;;;26.50;24.77;;;9.10;99.90;;;;;;5009553;28;20487;-73
2022/09/30 03:31:33;;;;;;;25.23;23.60;;;9.10;99.90;;;;;;5009682;28;20441;-73
2022/09/30 03:34:09;;;;;;;25.13;23.33;;;9.00;99.90;;;;;;5009496;28;20445;-73
2022/09/30 03:36:41;;;;;;;26.83;24.73;;;9.00;99.90;;;;;;5009336;28;20458;-74
2022/09/30 03:39:22;;;;;;;25.90;23.90;;;9.00;99.90;;;;;;5009657;28;20453;-73
2022/09/30 03:41:58;;;;;;;26.00;24.30;;;8.90;99.90;;;;;;5009438;28;20483;-74
2022/09/30 03:44:31;;;;;;;26.83;24.80;;;9.00;99.90;;;;;;5009687;28;20460;-74
2022/09/30 03:47:02;;;;;;;25.80;23.93;;;9.00;99.90;;;;;;5009714;28;20850;-72
2022/09/30 03:49:34;;;;;;;28.73;26.60;;;8.90;99.90;;;;;;5009240;28;20457;-73
2022/09/30 03:52:05;;;;;;;26.90;25.10;;;8.90;99.90;;;;;;5008504;28;20831;-73
2022/09/30 03:54:33;;;;;;;28.50;26.10;;;8.80;99.90;;;;;;5009367;28;20464;-73
2022/09/30 03:57:04;;;;;;;29.87;27.73;;;8.80;99.90;;;;;;5009407;28;20453;-73
2022/09/30 03:59:30;;;;;;;27.40;24.97;;;8.80;99.90;;;;;;5009425;28;20457;-72
2022/09/30 04:01:57;;;;;;;29.73;27.30;;;8.80;99.90;;;;;;5009455;28;20888;-73
2022/09/30 04:04:24;;;;;;;28.27;25.80;;;8.80;99.90;;;;;;5009899;28;20453;-73
2022/09/30 04:06:50;;;;;;;28.47;26.57;;;8.80;99.90;;;;;;5009604;28;20453;-73
2022/09/30 04:09:17;;;;;;;30.60;28.10;;;8.80;99.90;;;;;;5009281;28;20500;-73
2022/09/30 04:11:44;;;;;;;29.03;26.73;;;8.80;99.90;;;;;;5009628;28;20445;-73
2022/09/30 04:14:12;;;;;;;29.40;26.87;;;8.80;99.90;;;;;;5009716;28;20454;-73
2022/09/30 04:16:39;;;;;;;27.67;25.47;;;8.80;99.90;;;;;;5009841;28;20454;-73
2022/09/30 04:19:05;;;;;;;27.60;25.63;;;8.80;99.90;;;;;;5009585;28;20474;-73
2022/09/30 04:21:32;;;;;;;28.20;26.07;;;8.70;99.90;;;;;;5009448;28;20491;-73
2022/09/30 04:23:59;;;;;;;28.43;26.33;;;8.70;99.90;;;;;;5009460;28;20829;-73
2022/09/30 04:26:26;;;;;;;29.07;26.67;;;8.70;99.90;;;;;;5009872;28;20458;-73
2022/09/30 04:28:53;;;;;;;28.80;26.77;;;8.70;99.90;;;;;;5009656;28;20469;-74
2022/09/30 04:31:21;;;;;;;28.70;26.40;;;8.70;99.90;;;;;;5009399;28;20478;-74
2022/09/30 04:33:49;;;;;;;29.10;26.80;;;8.70;99.90;;;;;;5009419;28;20449;-73
2022/09/30 04:36:17;;;;;;;29.13;26.90;;;8.60;99.90;;;;;;5009336;28;20958;-73
2022/09/30 04:38:44;;;;;;;29.77;27.37;;;8.50;99.90;;;;;;5009356;28;20462;-73
2022/09/30 04:41:14;;;;;;;28.03;25.87;;;8.50;99.90;;;;;;5009735;28;20462;-73
2022/09/30 04:43:43;;;;;;;30.97;28.03;;;8.50;99.90;;;;;;5009714;28;20486;-73
2022/09/30 04:46:11;;;;;;;27.73;25.60;;;8.50;99.90;;;;;;5009560;28;20446;-74
2022/09/30 04:48:39;;;;;;;28.50;25.77;;;8.50;99.90;;;;;;5009417;28;20457;-75
2022/09/30 04:51:06;;;;;;;28.60;26.67;;;8.40;99.90;;;;;;5009375;28;20462;-74
2022/09/30 04:53:33;;;;;;;30.67;28.27;;;8.40;99.90;;;;;;5009251;28;20441;-74
2022/09/30 04:56:00;;;;;;;27.83;25.83;;;8.30;99.90;;;;;;5009263;28;20456;-74
2022/09/30 04:58:27;;;;;;;30.23;27.60;;;8.40;99.90;;;;;;5009357;28;20827;-74
2022/09/30 05:01:01;;;;;;;30.27;27.67;;;8.30;99.90;;;;;;5009419;28;20454;-74
2022/09/30 05:03:27;;;;;;;29.60;27.10;;;8.30;99.90;;;;;;5012240;28;20560;-74
2022/09/30 05:05:55;;;;;;;30.17;27.40;;;8.30;99.90;;;;;;5012924;28;20453;-73
2022/09/30 05:08:22;;;;;;;31.17;28.67;;;8.20;99.90;;;;;;5012477;28;21029;-74
2022/09/30 05:10:56;;;;;;;30.07;27.67;;;8.20;99.90;;;;;;5012353;28;20489;-74
2022/09/30 05:13:24;;;;;;;31.53;28.80;;;8.30;99.90;;;;;;5012678;28;20465;-73
2022/09/30 05:15:51;;;;;;;33.03;30.13;;;8.20;99.90;;;;;;5012453;28;20449;-74
2022/09/30 05:18:18;;;;;;;33.07;30.37;;;8.30;99.90;;;;;;5012221;28;20449;-73
2022/09/30 05:20:45;;;;;;;32.90;29.97;;;8.20;99.90;;;;;;5012477;28;20460;-74
2022/09/30 05:23:13;;;;;;;35.57;31.60;;;8.30;99.90;;;;;;5012449;28;20489;-74
2022/09/30 05:25:39;;;;;;;35.50;31.97;;;8.30;99.90;;;;;;5012452;28;20450;-74
2022/09/30 05:28:07;;;;;;;34.13;31.23;;;8.40;99.90;;;;;;5012177;28;20446;-74
2022/09/30 05:30:34;;;;;;;36.77;33.37;;;8.40;99.90;;;;;;5012139;28;20453;-75
2022/09/30 05:33:00;;;;;;;34.27;31.17;;;8.40;99.90;;;;;;5011981;28;20814;-74
2022/09/30 05:35:28;;;;;;;37.07;33.57;;;8.40;99.90;;;;;;5012325;28;20457;-72
2022/09/30 05:37:54;;;;;;;34.70;31.63;;;8.60;99.90;;;;;;5012002;28;20457;-72
2022/09/30 05:40:22;;;;;;;35.17;31.53;;;8.60;99.90;;;;;;5011192;28;20958;-72
2022/09/30 05:42:49;;;;;;;37.37;33.77;;;8.60;99.90;;;;;;5011793;28;20489;-71
2022/09/30 05:45:16;;;;;;;37.40;33.77;;;8.70;99.90;;;;;;5011728;28;20459;-71
2022/09/30 05:47:42;;;;;;;36.20;33.00;;;8.70;99.90;;;;;;5011951;28;20459;-71
2022/09/30 05:50:09;;;;;;;35.43;32.43;;;8.80;99.90;;;;;;5011979;28;20442;-71
2022/09/30 05:52:36;;;;;;;36.17;32.50;;;8.80;99.90;;;;;;5011653;28;20449;-71
2022/09/30 05:55:03;;;;;;;36.47;32.77;;;8.80;99.90;;;;;;5011618;28;21016;-71
2022/09/30 05:57:31;;;;;;;36.10;32.70;;;8.70;99.90;;;;;;5011764;28;20450;-71
2022/09/30 05:59:58;;;;;;;36.70;33.20;;;8.70;99.90;;;;;;5011804;28;20461;-71
2022/09/30 06:02:24;;;;;;;38.03;34.40;;;8.70;99.90;;;;;;5011713;28;20497;-71
2022/09/30 06:04:51;;;;;;;36.83;33.50;;;8.80;99.90;;;;;;5011411;28;20468;-71
2022/09/30 06:07:18;;;;;;;38.53;34.50;;;8.90;99.90;;;;;;5011419;28;20458;-72
2022/09/30 06:09:45;;;;;;;38.00;34.30;;;8.90;99.90;;;;;;5010930;28;20489;-71
2022/09/30 06:12:12;;;;;;;38.07;34.43;;;8.90;99.90;;;;;;5011495;28;20454;-71
2022/09/30 06:14:41;;;;;;;38.37;34.87;;;9.00;99.90;;;;;;5010669;28;20485;-70
2022/09/30 06:17:07;;;;;;;36.10;33.00;;;9.10;99.90;;;;;;5011279;28;20480;-71
2022/09/30 06:19:34;;;;;;;34.77;31.70;;;9.10;99.90;;;;;;5002754;28;20485;-72
2022/09/30 06:22:01;;;;;;;35.93;32.83;;;9.20;99.90;;;;;;4999517;28;20507;-72
2022/09/30 06:24:27;;;;;;;36.00;32.90;;;9.30;99.90;;;;;;5009876;28;20468;-72
2022/09/30 06:26:54;;;;;;;37.80;33.80;;;9.30;99.90;;;;;;5029183;28;20446;-72
2022/09/30 06:29:21;;;;;;;38.73;35.13;;;9.40;99.90;;;;;;5009902;28;20453;-71
2022/09/30 06:31:49;;;;;;;36.00;32.90;;;9.40;99.90;;;;;;5011385;28;20477;-73
2022/09/30 06:34:16;;;;;;;39.07;35.47;;;9.40;99.90;;;;;;5011889;28;20452;-72
2022/09/30 06:36:42;;;;;;;38.77;35.20;;;9.40;99.90;;;;;;5011829;28;20943;-71
2022/09/30 06:39:09;;;;;;;39.10;35.50;;;9.60;99.90;;;;;;5012195;28;20457;-71
2022/09/30 06:41:42;;;;;;;38.53;35.13;;;9.60;99.90;;;;;;5012816;28;20457;-71
2022/09/30 06:44:09;;;;;;;36.50;33.30;;;9.70;99.90;;;;;;5016028;28;20465;-69
2022/09/30 06:46:36;;;;;;;39.30;35.40;;;9.80;99.90;;;;;;5016181;28;20454;-71
2022/09/30 06:49:05;;;;;;;36.23;32.93;;;10.00;99.90;;;;;;5015056;28;20453;-71
2022/09/30 06:51:32;;;;;;;38.27;34.50;;;10.10;99.90;;;;;;5014531;28;20601;-71
2022/09/30 06:53:59;;;;;;;36.23;33.00;;;10.10;99.90;;;;;;5011110;28;20482;-71
2022/09/30 06:56:27;;;;;;;34.20;31.30;;;10.00;99.90;;;;;;5011361;28;20453;-71
2022/09/30 06:58:55;;;;;;;33.43;30.20;;;10.00;99.90;;;;;;5011101;28;20453;-71
2022/09/30 07:01:23;;;;;;;36.30;33.17;;;9.90;99.90;;;;;;5011039;28;20452;-70
2022/09/30 07:03:56;;;;;;;35.57;32.37;;;9.80;99.90;;;;;;5010743;28;20485;-72
2022/09/30 07:06:25;;;;;;;35.10;31.87;;;9.80;99.90;;;;;;5010846;28;20450;-70
2022/09/30 07:08:52;;;;;;;35.27;31.97;;;9.70;99.90;;;;;;5010433;28;20483;-70
2022/09/30 07:11:19;;;;;;;34.93;32.13;;;9.70;99.90;;;;;;5010800;28;20466;-71
2022/09/30 07:13:46;;;;;;;33.53;30.83;;;9.80;99.90;;;;;;5010586;28;20450;-70
2022/09/30 07:16:13;;;;;;;32.37;29.77;;;9.70;99.90;;;;;;5010732;28;20457;-71
2022/09/30 07:18:42;;;;;;;31.83;29.33;;;9.70;99.90;;;;;;5010834;28;20982;-70
2022/09/30 07:21:11;;;;;;;31.00;28.60;;;9.60;99.90;;;;;;5010691;28;20465;-72
2022/09/30 07:23:44;;;;;;;33.10;30.07;;;9.80;99.90;;;;;;5010498;28;20489;-72
2022/09/30 07:26:11;;;;;;;31.17;28.70;;;9.80;99.90;;;;;;5010666;28;20460;-71
2022/09/30 07:28:38;;;;;;;30.10;27.80;;;10.00;99.90;;;;;;5010568;28;20488;-72
2022/09/30 07:31:10;;;;;;;31.30;28.47;;;10.10;99.90;;;;;;5010426;28;20454;-72
2022/09/30 07:33:38;;;;;;;32.77;29.47;;;10.10;99.90;;;;;;5010673;28;20788;-71
2022/09/30 07:36:07;;;;;;;32.77;29.87;;;10.00;99.90;;;;;;5010404;28;20450;-72
2022/09/30 07:38:35;;;;;;;30.67;27.80;;;10.00;99.90;;;;;;5010352;28;20457;-71
2022/09/30 07:41:07;;;;;;;31.17;28.53;;;10.20;99.90;;;;;;5010436;28;20453;-70
2022/09/30 07:43:37;;;;;;;30.93;28.37;;;10.40;99.90;;;;;;5010086;28;20496;-70
2022/09/30 07:46:06;;;;;;;30.53;27.70;;;10.30;99.90;;;;;;5010253;28;20485;-71
2022/09/30 07:48:42;;;;;;;29.50;27.00;;;10.20;99.90;;;;;;5010178;28;20536;-71
2022/09/30 07:51:09;;;;;;;30.80;28.00;;;10.40;99.90;;;;;;5010359;28;20512;-71
2022/09/30 07:53:36;;;;;;;31.57;29.03;;;10.60;99.90;;;;;;5010135;28;20481;-71
2022/09/30 07:56:06;;;;;;;29.03;26.63;;;10.60;99.90;;;;;;5010212;28;20449;-70
2022/09/30 07:58:33;;;;;;;26.03;24.03;;;10.80;99.90;;;;;;5010236;28;20453;-73
2022/09/30 08:01:00;;;;;;;25.43;23.53;;;10.90;99.90;;;;;;5010282;28;20450;-72
2022/09/30 08:03:27;;;;;;;25.23;23.33;;;11.00;99.90;;;;;;5010216;28;20489;-71
2022/09/30 08:05:53;;;;;;;26.83;24.63;;;11.20;99.90;;;;;;5010306;28;20458;-70
2022/09/30 08:08:20;;;;;;;27.03;24.77;;;11.30;99.90;;;;;;5009975;28;20493;-70
2022/09/30 08:10:47;;;;;;;24.83;22.80;;;11.60;99.90;;;;;;5009801;28;20489;-70
2022/09/30 08:13:15;;;;;;;23.63;21.83;;;11.90;99.90;;;;;;5010153;28;20944;-70
2022/09/30 08:15:42;;;;;;;24.60;22.93;;;12.10;99.90;;;;;;5010146;28;20460;-70
2022/09/30 08:18:09;;;;;;;23.37;21.50;;;12.20;99.90;;;;;;5009980;28;20947;-71
2022/09/30 08:20:36;;;;;;;24.40;22.63;;;12.40;99.90;;;;;;5009525;28;20541;-70
2022/09/30 08:23:02;;;;;;;24.73;22.90;;;12.30;99.90;;;;;;5009375;28;20493;-71
2022/09/30 08:25:29;;;;;;;25.30;23.50;;;12.10;99.90;;;;;;5009337;28;20948;-72
2022/09/30 08:27:56;;;;;;;25.67;23.53;;;12.20;99.90;;;;;;5009684;28;20461;-72
2022/09/30 08:30:24;;;;;;;25.43;23.60;;;12.20;99.90;;;;;;5009408;28;20939;-71
2022/09/30 08:32:50;;;;;;;26.73;24.43;;;12.10;99.90;;;;;;5009306;28;20461;-72
2022/09/30 08:35:17;;;;;;;24.20;22.30;;;12.40;99.90;;;;;;5009424;28;20809;-73
2022/09/30 08:37:44;;;;;;;25.83;23.70;;;12.60;99.90;;;;;;5011409;28;20796;-73
2022/09/30 08:40:19;;;;;;;25.73;23.73;;;12.80;99.90;;;;;;5012065;28;20461;-71
2022/09/30 08:43:03;;;;;;;25.33;23.30;;;13.00;99.90;;;;;;5012914;28;20487;-71
2022/09/30 08:45:41;;;;;;;23.73;22.03;;;13.30;99.90;;;;;;5012626;28;20461;-70
2022/09/30 08:48:27;;;;;;;24.20;22.60;;;13.60;99.90;;;;;;5012993;28;20472;-71
2022/09/30 08:51:05;;;;;;;24.73;22.83;;;13.80;99.90;;;;;;5012929;28;20453;-72
2022/09/30 08:53:37;;;;;;;25.13;23.13;;;14.10;99.90;;;;;;5010844;28;20450;-71
2022/09/30 08:56:05;;;;;;;21.67;20.27;;;14.50;99.90;;;;;;5012599;28;20473;-71
2022/09/30 08:58:35;;;;;;;22.27;20.77;;;15.20;99.90;;;;;;5012612;28;20465;-72
2022/09/30 09:01:13;;;;;;;21.70;20.10;;;15.60;99.90;;;;;;5012356;28;20689;-72
2022/09/30 09:03:40;;;;;;;23.00;21.30;;;16.20;99.90;;;;;;5012420;28;20492;-71
2022/09/30 09:06:20;;;;;;;23.73;21.93;;;16.80;99.90;;;;;;5012569;28;20552;-71
2022/09/30 09:09:19;;;;;;;23.30;21.70;;;17.10;99.90;;;;;;5012037;28;21189;-72
2022/09/30 09:12:05;;;;;;;24.60;22.90;;;17.70;99.90;;;;;;4992375;28;20466;-71
2022/09/30 09:14:41;;;;;;;22.90;21.27;;;18.10;99.90;;;;;;5012094;28;20449;-71
2022/09/30 09:17:23;;;;;;;22.37;20.87;;;19.00;99.90;;;;;;5012399;28;20459;-72
2022/09/30 09:19:57;;;;;;;21.80;20.50;;;19.80;99.90;;;;;;5011997;28;20477;-71
2022/09/30 09:22:27;;;;;;;23.43;21.93;;;21.10;97.60;;;;;;5012362;28;20438;-72
2022/09/30 09:24:54;;;;;;;23.40;21.90;;;22.10;94.50;;;;;;5012283;28;20465;-72
2022/09/30 09:27:25;;;;;;;21.63;20.23;;;22.30;92.70;;;;;;5011846;28;20457;-70
2022/09/30 09:30:03;;;;;;;24.20;22.80;;;22.90;91.90;;;;;;5011995;28;20815;-70
2022/09/30 09:32:32;;;;;;;22.53;21.13;;;23.90;89.90;;;;;;5011793;28;20457;-70
2022/09/30 09:35:01;;;;;;;24.67;23.17;;;23.40;90.10;;;;;;5011777;28;20450;-70
2022/09/30 09:40:33;;;;;;;23.80;22.20;;;23.60;89.10;;;;;;5012115;28;20417;-71
2022/09/30 09:43:08;;;;;;;23.80;22.40;;;23.50;88.70;;;;;;5011630;28;20481;-71
2022/09/30 09:45:41;;;;;;;25.13;23.53;;;23.50;87.50;;;;;;5011577;28;20457;-71
2022/09/30 09:48:11;;;;;;;22.87;21.37;;;22.60;89.30;;;;;;5011680;28;20959;-71
2022/09/30 09:50:46;;;;;;;22.40;20.90;;;22.40;91.10;;;;;;5011886;28;20453;-72
2022/09/30 09:53:40;;;;;;;23.83;22.33;;;22.70;91.20;;;;;;5011456;28;20449;-72
2022/09/30 09:56:17;;;;;;;22.50;21.20;;;23.20;89.60;;;;;;5006339;28;20466;-72
2022/09/30 09:59:05;;;;;;;22.33;21.03;;;23.50;87.60;;;;;;5011351;28;20446;-71
2022/09/30 10:01:33;;;;;;;21.17;19.97;;;23.90;86.00;;;;;;5011222;28;20552;-71
2022/09/30 10:04:15;;;;;;;23.30;21.73;;;24.40;84.40;;;;;;5010942;28;21018;-70
2022/09/30 10:06:48;;;;;;;22.60;21.30;;;24.80;84.20;;;;;;5011455;28;20477;-70
2022/09/30 10:09:30;;;;;;;22.90;21.30;;;25.90;79.30;;;;;;5010874;28;20489;-70
2022/09/30 10:12:17;;;;;;;23.63;22.30;;;25.80;76.10;;;;;;5011625;28;20792;-71
2022/09/30 10:14:52;;;;;;;23.13;21.63;;;25.40;79.20;;;;;;5011025;28;20461;-72
2022/09/30 10:17:21;;;;;;;23.73;22.30;;;25.60;77.60;;;;;;5011169;28;20461;-72
2022/09/30 10:19:53;;;;;;;23.53;21.93;;;25.20;76.90;;;;;;5010972;28;20465;-72
2022/09/30 10:22:24;;;;;;;21.83;20.60;;;24.50;80.30;;;;;;5010805;28;20450;-70
2022/09/30 10:24:51;;;;;;;22.80;21.40;;;25.00;78.50;;;;;;5010807;28;20488;-71
2022/09/30 10:27:27;;;;;;;21.30;19.90;;;24.70;78.40;;;;;;5010752;28;20453;-71
2022/09/30 10:29:54;;;;;;;21.33;19.90;;;24.80;79.30;;;;;;5010930;28;21005;-71
2022/09/30 10:32:22;;;;;;;23.33;21.73;;;25.50;76.60;;;;;;5010778;28;20947;-71
2022/09/30 10:34:57;;;;;;;22.63;21.23;;;25.60;74.90;;;;;;5010679;28;20442;-72
2022/09/30 10:37:24;;;;;;;22.40;20.80;;;26.20;73.00;;;;;;5010955;28;20454;-72
2022/09/30 10:40:00;;;;;;;21.57;20.40;;;25.50;72.40;;;;;;5010628;28;20461;-71
2022/09/30 10:42:28;;;;;;;22.57;20.77;;;25.50;73.70;;;;;;5011251;28;20469;-71
2022/09/30 10:44:56;;;;;;;22.30;20.90;;;25.90;73.40;;;;;;5010848;28;20576;-71
2022/09/30 10:47:25;;;;;;;24.73;22.60;;;26.60;70.70;;;;;;5010590;28;20453;-71
2022/09/30 10:49:57;;;;;;;22.70;20.80;;;27.70;66.80;;;;;;5010470;28;20536;-71
2022/09/30 10:52:28;;;;;;;23.27;21.73;;;28.20;65.40;;;;;;5010682;28;20457;-72
2022/09/30 10:54:55;;;;;;;23.27;22.00;;;28.30;65.00;;;;;;5010552;28;20453;-72
2022/09/30 10:57:25;;;;;;;20.40;19.10;;;28.30;64.30;;;;;;5010481;28;20453;-71
2022/09/30 10:59:55;;;;;;;20.10;19.00;;;28.90;62.20;;;;;;5009900;28;20452;-72
2022/09/30 11:02:29;;;;;;;21.67;20.47;;;29.80;60.40;;;;;;5010557;28;20456;-71
2022/09/30 11:05:05;;;;;;;19.87;18.77;;;30.70;57.30;;;;;;5010372;28;20485;-72
2022/09/30 11:07:39;;;;;;;19.53;18.33;;;30.80;55.10;;;;;;5010021;28;20951;-71
2022/09/30 11:10:14;;;;;;;17.83;16.93;;;29.20;56.60;;;;;;5010037;28;20474;-72
2022/09/30 11:12:47;;;;;;;18.20;17.30;;;28.40;57.20;;;;;;5010315;28;20453;-72
2022/09/30 11:15:21;;;;;;;16.27;15.47;;;27.90;58.30;;;;;;5008482;28;20504;-71
2022/09/30 11:17:56;;;;;;;18.90;18.00;;;28.50;58.00;;;;;;5009905;28;20453;-72
2022/09/30 11:20:29;;;;;;;18.00;17.00;;;28.30;57.20;;;;;;5010191;28;20468;-72
2022/09/30 11:23:02;;;;;;;17.03;16.33;;;28.40;57.50;;;;;;5010269;28;20804;-72
2022/09/30 11:25:38;;;;;;;17.17;16.17;;;28.10;57.00;;;;;;5008204;28;20446;-72
2022/09/30 11:28:27;;;;;;;17.20;16.27;;;26.20;60.10;;;;;;5009947;28;20457;-72
2022/09/30 11:31:02;;;;;;;17.90;17.00;;;26.70;60.70;;;;;;5010039;28;20450;-72
2022/09/30 11:33:49;;;;;;;17.50;16.60;;;27.60;60.10;;;;;;5009799;28;20453;-73
2022/09/30 11:36:26;;;;;;;16.93;16.03;;;28.00;56.50;;;;;;5009769;28;20457;-72
2022/09/30 11:39:13;;;;;;;17.50;16.50;;;26.20;59.70;;;;;;5009683;28;20449;-71
2022/09/30 11:41:47;;;;;;;15.10;14.40;;;26.10;60.80;;;;;;5009982;28;20560;-72
2022/09/30 11:44:29;;;;;;;16.13;15.17;;;26.50;59.40;;;;;;5009734;28;20490;-72
2022/09/30 11:47:18;;;;;;;15.90;14.97;;;25.50;62.10;;;;;;5009900;28;20457;-72
2022/09/30 11:50:05;;;;;;;15.63;14.90;;;24.70;63.60;;;;;;5007921;28;20893;-72
2022/09/30 11:52:46;;;;;;;15.33;14.43;;;25.00;62.80;;;;;;5009625;28;20458;-72
2022/09/30 11:55:29;;;;;;;15.03;14.33;;;25.60;62.80;;;;;;5009614;28;20441;-71
2022/09/30 11:58:01;;;;;;;15.70;15.00;;;27.30;59.80;;;;;;5009942;28;20557;-72
2022/09/30 12:00:30;;;;;;;15.87;15.17;;;29.00;56.60;;;;;;5009894;28;20454;-72
2022/09/30 12:03:01;;;;;;;14.20;13.63;;;29.20;54.80;;;;;;5010039;28;20450;-72
2022/09/30 12:05:35;;;;;;;15.40;14.80;;;29.80;52.90;;;;;;5009265;28;20490;-72
2022/09/30 12:08:10;;;;;;;14.10;13.50;;;30.70;51.40;;;;;;5009325;28;21119;-71
2022/09/30 12:10:42;;;;;;;14.87;14.27;;;29.70;51.00;;;;;;5009593;28;20485;-72
2022/09/30 12:13:13;;;;;;;16.33;15.43;;;28.30;54.10;;;;;;5012475;28;20450;-72
2022/09/30 12:15:43;;;;;;;15.07;14.37;;;29.30;52.20;;;;;;5013622;28;20442;-72
2022/09/30 12:18:14;;;;;;;14.67;13.97;;;28.60;52.00;;;;;;5013705;28;20446;-72
2022/09/30 12:20:46;;;;;;;13.30;12.80;;;28.80;52.70;;;;;;5013615;28;20457;-72
2022/09/30 12:23:20;;;;;;;14.10;13.50;;;29.70;50.30;;;;;;5013325;28;20458;-72
2022/09/30 12:25:52;;;;;;;13.83;13.23;;;28.80;49.30;;;;;;5013085;28;20495;-71
2022/09/30 12:31:51;;;;;;;14.00;13.40;;;26.50;52.60;;;;;;5013353;28;20564;-72
2022/09/30 12:34:31;;;;;;;14.90;14.30;;;26.50;53.80;;;;;;5012966;28;20520;-72
2022/09/30 12:37:18;;;;;;;14.90;14.30;;;27.60;52.70;;;;;;5012987;28;20445;-72
2022/09/30 12:40:11;;;;;;;13.03;12.53;;;28.70;49.90;;;;;;5013100;28;20454;-72
2022/09/30 12:43:13;;;;;;;12.80;12.30;;;28.70;48.80;;;;;;5013119;28;20895;-72
2022/09/30 12:46:13;;;;;;;13.90;13.30;;;26.60;51.20;;;;;;5013203;28;20517;-72
2022/09/30 12:48:44;;;;;;;12.90;12.50;;;27.00;50.80;;;;;;4991552;28;20465;-72
2022/09/30 12:51:24;;;;;;;13.30;12.80;;;26.60;51.50;;;;;;5013176;28;20801;-72
2022/09/30 12:53:58;;;;;;;13.80;13.20;;;25.80;51.10;;;;;;5012696;28;20446;-72
2022/09/30 12:56:29;;;;;;;13.87;13.10;;;26.30;51.60;;;;;;5013022;28;20449;-72
2022/09/30 12:58:59;;;;;;;13.40;12.70;;;26.80;48.90;;;;;;5013000;28;20452;-72
2022/09/30 13:01:27;;;;;;;12.90;12.40;;;26.40;50.20;;;;;;5012994;28;20553;-72
2022/09/30 13:04:14;;;;;;;13.07;12.37;;;27.10;50.10;;;;;;5012752;28;21018;-72
2022/09/30 13:07:07;;;;;;;12.80;12.20;;;27.10;49.10;;;;;;5012680;28;20457;-72
2022/09/30 13:09:35;;;;;;;12.80;12.17;;;26.80;48.10;;;;;;5001582;28;20552;-72
2022/09/30 13:12:24;;;;;;;12.70;12.20;;;27.20;47.50;;;;;;5012199;28;20836;-72
2022/09/30 13:15:30;;;;;;;12.37;11.83;;;26.10;48.20;;;;;;5012351;28;20545;-72
2022/09/30 13:18:25;;;;;;;13.10;12.50;;;25.00;50.10;;;;;;5012524;28;20445;-72
2022/09/30 13:20:55;;;;;;;13.20;12.70;;;24.40;50.10;;;;;;5012269;28;20438;-71
2022/09/30 13:23:38;;;;;;;14.23;13.43;;;24.50;52.20;;;;;;5011773;28;20998;-71
2022/09/30 13:26:39;;;;;;;12.63;12.20;;;24.90;50.30;;;;;;5011972;28;20928;-71
2022/09/30 13:29:37;;;;;;;13.43;12.80;;;25.60;49.70;;;;;;5012136;28;20476;-71
2022/09/30 13:32:05;;;;;;;12.70;11.67;;;25.70;49.30;;;;;;4967529;28;20515;-71
2022/09/30 13:34:35;;;;;;;12.67;12.10;;;26.50;48.50;;;;;;5012104;28;20464;-72
2022/09/30 13:37:03;;;;;;;13.63;13.10;;;26.50;47.20;;;;;;5012055;28;20460;-72
2022/09/30 13:39:44;;;;;;;12.67;12.13;;;26.40;47.50;;;;;;5012063;28;20477;-72
2022/09/30 13:42:17;;;;;;;12.73;12.23;;;25.10;47.90;;;;;;5012356;28;20507;-71
2022/09/30 13:44:59;;;;;;;12.90;12.40;;;23.40;50.50;;;;;;5012094;28;20565;-71
2022/09/30 13:47:31;;;;;;;12.00;11.40;;;22.60;52.40;;;;;;5012205;28;20860;-71
2022/09/30 13:50:02;;;;;;;11.07;10.67;;;21.80;52.80;;;;;;5012103;28;20449;-72
2022/09/30 13:52:32;;;;;;;10.33;9.93;;;21.20;54.70;;;;;;5011748;28;20458;-71
2022/09/30 13:55:06;;;;;;;11.20;10.80;;;20.80;54.40;;;;;;5011713;28;20619;-72
2022/09/30 13:57:46;;;;;;;11.47;10.97;;;20.30;55.50;;;;;;5011684;28;20462;-71
2022/09/30 14:00:17;;;;;;;10.77;10.13;;;20.10;78.90;;;;;;5011771;28;20504;-71
2022/09/30 14:03:06;;;;;;;10.90;10.40;;;20.00;56.70;;;;;;5011690;28;20446;-71
2022/09/30 14:05:52;;;;;;;11.57;10.97;;;19.90;57.50;;;;;;5011402;28;21029;-71
2022/09/30 14:08:43;;;;;;;10.20;9.80;;;19.70;56.90;;;;;;5010444;28;20481;-71
2022/09/30 14:11:35;;;;;;;10.87;10.37;;;19.60;57.80;;;;;;5011746;28;20448;-72
2022/09/30 14:14:23;;;;;;;9.97;9.67;;;19.40;58.60;;;;;;5011491;28;20438;-71
2022/09/30 14:17:28;;;;;;;10.90;10.50;;;19.10;59.40;;;;;;5011364;28;20814;-72
2022/09/30 14:20:13;;;;;;;10.93;10.43;;;19.10;60.30;;;;;;5006872;28;20453;-72
2022/09/30 14:22:41;;;;;;;10.17;9.87;;;19.10;59.20;;;;;;5012044;28;20450;-72
2022/09/30 14:25:14;;;;;;;13.07;12.47;;;19.20;59.60;;;;;;5012420;28;21086;-72
2022/09/30 14:27:52;;;;;;;10.00;9.70;;;19.20;59.50;;;;;;5012162;28;20490;-72
2022/09/30 14:30:20;;;;;;;10.00;9.60;;;19.20;58.80;;;;;;5012038;28;20449;-70
2022/09/30 14:32:53;;;;;;;12.07;11.67;;;19.30;58.90;;;;;;5011758;28;20457;-70
2022/09/30 14:35:22;;;;;;;12.07;11.67;;;19.20;58.90;;;;;;5011002;28;20468;-70
2022/09/30 14:37:52;;;;;;;12.60;12.00;;;19.40;59.30;;;;;;5011065;28;20454;-70
2022/09/30 14:40:27;;;;;;;12.70;12.10;;;19.30;58.40;;;;;;5011395;28;20457;-69
2022/09/30 14:43:01;;;;;;;10.73;10.33;;;19.40;59.30;;;;;;5011409;28;20529;-71
2022/09/30 14:45:31;;;;;;;11.43;11.03;;;19.50;58.20;;;;;;5011028;28;20489;-72
2022/09/30 14:48:02;;;;;;;9.60;9.20;;;19.40;58.70;;;;;;5010808;28;20454;-72
2022/09/30 14:50:35;;;;;;;9.67;9.37;;;19.30;58.70;;;;;;5010710;28;20978;-72
2022/09/30 14:53:02;;;;;;;11.80;11.40;;;19.20;59.60;;;;;;5010561;28;20462;-73
2022/09/30 14:55:31;;;;;;;12.93;12.23;;;19.00;61.60;;;;;;5010004;28;20466;-72
2022/09/30 14:58:21;;;;;;;13.70;13.00;;;19.00;65.00;;;;;;5010484;28;20442;-72
2022/09/30 15:00:50;;;;;;;14.03;13.37;;;18.90;69.60;;;;;;5010285;28;20898;-73
2022/09/30 15:03:18;;;;;;;12.73;12.23;;;18.90;70.70;;;;;;5010379;28;20520;-72
2022/09/30 15:05:45;;;;;;;14.30;13.50;;;18.80;71.40;;;;;;5010255;28;20481;-72
2022/09/30 15:08:16;;;;;;;11.37;10.97;;;18.70;71.40;;;;;;5010478;28;20834;-72
2022/09/30 15:10:47;;;;;;;13.23;12.50;;;18.40;71.80;;;;;;5009481;28;20482;-72
2022/09/30 15:13:15;;;;;;;13.90;13.30;;;18.20;73.60;;;;;;5009759;28;20621;-72
2022/09/30 15:15:42;;;;;;;12.93;12.30;;;18.10;74.20;;;;;;5010094;28;20457;-72
2022/09/30 15:18:34;;;;;;;13.90;13.20;;;18.00;74.90;;;;;;5010020;28;20458;-72
2022/09/30 15:21:08;;;;;;;13.37;12.70;;;17.80;75.20;;;;;;5009756;28;20942;-72
2022/09/30 15:23:38;;;;;;;13.07;12.57;;;17.60;75.50;;;;;;5009765;28;20445;-71
2022/09/30 15:26:05;;;;;;;12.17;11.67;;;17.50;76.90;;;;;;5009761;28;20492;-72
2022/09/30 15:28:33;;;;;;;10.70;10.00;;;17.50;77.10;;;;;;5010013;28;20462;-71
2022/09/30 15:31:01;;;;;;;12.17;11.47;;;17.50;78.20;;;;;;5009789;28;20541;-72
2022/09/30 15:33:31;;;;;;;12.33;11.60;;;17.40;79.30;;;;;;5009652;28;20458;-72
2022/09/30 15:36:06;;;;;;;12.63;12.03;;;17.30;78.80;;;;;;5009813;28;20456;-72
2022/09/30 15:38:37;;;;;;;13.77;12.90;;;17.30;79.60;;;;;;5009541;28;20666;-71
2022/09/30 15:41:06;;;;;;;11.80;11.30;;;17.30;79.70;;;;;;5009627;28;20809;-72
2022/09/30 15:43:39;;;;;;;12.60;12.00;;;17.20;79.00;;;;;;5009599;28;20457;-72
2022/09/30 15:46:36;;;;;;;12.27;11.77;;;17.10;78.70;;;;;;5009322;28;20508;-71
2022/09/30 15:49:06;;;;;;;12.10;11.40;;;17.10;78.80;;;;;;5009409;28;20456;-71
2022/09/30 15:51:44;;;;;;;12.00;11.60;;;17.10;79.20;;;;;;5009360;28;20449;-72
2022/09/30 15:54:34;;;;;;;12.00;11.57;;;17.10;80.80;;;;;;5009946;28;20460;-70
2022/09/30 15:57:03;;;;;;;11.83;11.33;;;17.00;80.60;;;;;;5009383;28;20481;-71
2022/09/30 15:59:59;;;;;;;12.50;11.90;;;16.90;82.00;;;;;;5009413;28;20450;-71
2022/09/30 16:02:27;;;;;;;12.93;12.30;;;16.80;83.10;;;;;;5009990;28;20480;-71
2022/09/30 16:04:56;;;;;;;12.93;11.90;;;16.70;82.00;;;;;;5009535;28;20485;-72
2022/09/30 16:07:27;;;;;;;11.50;11.00;;;16.60;83.10;;;;;;5009276;28;20454;-72
2022/09/30 16:09:57;;;;;;;12.07;11.57;;;16.60;84.60;;;;;;5009490;28;20466;-71
2022/09/30 16:12:32;;;;;;;11.63;11.13;;;16.60;84.30;;;;;;5009621;28;20454;-72
2022/09/30 16:15:06;;;;;;;12.10;11.70;;;16.60;86.30;;;;;;5009269;28;20504;-71